Time;durP1;ratioP1;P1;durP2;ratioP2;P2;SDS_P1;SDS_P2;PMS_P1;PMS_P2;Temp;Humidity;BMP_temperature;BMP_pressure;BME280_temperature;BME280_humidity;BME280_pressure;Samples;Min_cycle;Max_cycle;Signal;HPM_P1;HPM_P2
2023/04/15 00:02:16;;;;;;;0.30;0.10;;;16.70;67.60;;;;;;5045762;28;20048;-77
2023/04/15 00:04:42;;;;;;;0.22;0.10;;;16.70;67.60;;;;;;5029226;28;20076;-77
2023/04/15 00:07:08;;;;;;;0.10;0.10;;;16.70;67.60;;;;;;5043751;28;20041;-77
2023/04/15 00:09:34;;;;;;;0.30;0.20;;;16.70;67.60;;;;;;5028236;28;20075;-77
2023/04/15 00:12:00;;;;;;;0.20;0.20;;;16.70;67.60;;;;;;5045330;28;20045;-77
2023/04/15 00:14:26;;;;;;;0.30;0.22;;;16.70;67.70;;;;;;5026917;28;20037;-77
2023/04/15 00:16:54;;;;;;;0.28;0.10;;;16.70;67.60;;;;;;5043070;28;20064;-77
2023/04/15 00:19:20;;;;;;;0.22;0.20;;;16.70;68.40;;;;;;5040223;28;20047;-77
2023/04/15 00:21:46;;;;;;;0.10;0.10;;;16.70;67.60;;;;;;4994012;28;21305;-77
2023/04/15 00:24:12;;;;;;;0.38;0.10;;;16.70;67.60;;;;;;5029151;28;20040;-77
2023/04/15 00:26:38;;;;;;;0.20;0.20;;;16.70;67.60;;;;;;5028467;28;20060;-77
2023/04/15 00:29:03;;;;;;;0.10;0.10;;;16.70;67.60;;;;;;5024789;28;20738;-77
2023/04/15 00:31:30;;;;;;;0.35;0.30;;;16.60;67.50;;;;;;5013528;28;20049;-77
2023/04/15 00:33:55;;;;;;;0.40;0.10;;;16.60;67.60;;;;;;5016061;28;20079;-77
2023/04/15 00:36:22;;;;;;;0.32;0.20;;;16.60;67.60;;;;;;5025916;28;20056;-77
2023/04/15 00:38:47;;;;;;;0.20;0.08;;;16.60;67.60;;;;;;5027402;28;20044;-77
2023/04/15 00:41:13;;;;;;;0.10;0.10;;;16.60;67.50;;;;;;5031387;28;20057;-77
2023/04/15 00:43:39;;;;;;;0.17;0.10;;;16.70;67.80;;;;;;4992782;28;20141;-77
2023/04/15 00:46:04;;;;;;;0.20;0.10;;;16.60;67.70;;;;;;5030635;28;20540;-77
2023/04/15 00:48:30;;;;;;;0.20;0.20;;;16.60;67.60;;;;;;4994888;28;20541;-77
2023/04/15 00:50:56;;;;;;;0.38;0.20;;;16.60;67.60;;;;;;4985999;28;20048;-77
2023/04/15 00:53:21;;;;;;;0.28;0.10;;;16.60;67.60;;;;;;5029025;28;20140;-77
2023/04/15 00:55:47;;;;;;;0.25;0.13;;;16.70;67.60;;;;;;4992443;28;20076;-77
2023/04/15 00:58:12;;;;;;;0.82;0.10;;;16.60;67.60;;;;;;5014627;28;20043;-77
2023/04/15 01:00:38;;;;;;;0.20;0.20;;;16.60;67.60;;;;;;5015273;28;20469;-77
2023/04/15 01:03:03;;;;;;;0.40;0.20;;;16.60;67.60;;;;;;5004623;28;20063;-77
2023/04/15 01:05:30;;;;;;;0.20;0.10;;;16.60;67.50;;;;;;5020179;28;20057;-77
2023/04/15 01:07:55;;;;;;;0.20;0.10;;;16.60;67.50;;;;;;5013645;28;20065;-77
2023/04/15 01:10:21;;;;;;;0.13;0.13;;;16.60;67.60;;;;;;5012525;28;20190;-77
2023/04/15 01:12:46;;;;;;;0.10;0.10;;;16.60;67.50;;;;;;5001990;28;20066;-76
2023/04/15 01:15:12;;;;;;;0.30;0.10;;;16.60;67.50;;;;;;5004778;28;20476;-76
2023/04/15 01:17:38;;;;;;;0.50;0.10;;;16.60;67.60;;;;;;5010447;28;20706;-76
2023/04/15 01:20:05;;;;;;;0.35;0.20;;;16.60;67.70;;;;;;5004060;28;20041;-76
2023/04/15 01:22:30;;;;;;;0.10;0.10;;;16.60;67.30;;;;;;5009396;28;20060;-76
2023/04/15 01:25:09;;;;;;;0.20;0.10;;;16.60;67.50;;;;;;5007936;28;20549;-76
2023/04/15 01:27:35;;;;;;;0.28;0.10;;;16.60;67.50;;;;;;4998433;28;20059;-76
2023/04/15 01:30:04;;;;;;;0.43;0.30;;;16.60;67.50;;;;;;4989863;28;20049;-76
2023/04/15 01:32:29;;;;;;;0.20;0.00;;;16.60;67.60;;;;;;5010029;28;20130;-76
2023/04/15 01:34:55;;;;;;;0.43;0.10;;;16.60;67.40;;;;;;5009761;28;20049;-77
2023/04/15 01:37:21;;;;;;;0.20;0.10;;;16.60;67.50;;;;;;4994488;28;20449;-76
2023/04/15 01:39:46;;;;;;;0.10;0.00;;;16.60;67.40;;;;;;4971045;28;20074;-76
2023/04/15 01:42:12;;;;;;;0.20;0.13;;;16.60;67.50;;;;;;5020270;28;20049;-76
2023/04/15 01:44:37;;;;;;;0.10;0.10;;;16.60;67.40;;;;;;5022107;28;20178;-76
2023/04/15 01:47:04;;;;;;;0.10;0.10;;;16.60;67.40;;;;;;5022952;28;20417;-76
2023/04/15 01:49:30;;;;;;;0.00;0.00;;;16.60;67.40;;;;;;5006699;28;20282;-76
2023/04/15 01:51:55;;;;;;;0.63;0.10;;;16.60;67.30;;;;;;5022675;28;20398;-76
2023/04/15 01:54:21;;;;;;;0.00;0.00;;;16.60;67.30;;;;;;5019965;28;20398;-76
2023/04/15 01:56:46;;;;;;;0.10;0.10;;;16.60;67.30;;;;;;5014637;28;20049;-76
2023/04/15 01:59:12;;;;;;;0.30;0.13;;;16.50;67.40;;;;;;5021250;28;20040;-76
2023/04/15 02:01:38;;;;;;;0.00;0.00;;;16.60;67.30;;;;;;5011022;28;20525;-76
2023/04/15 02:04:04;;;;;;;0.17;0.10;;;16.60;67.30;;;;;;5027773;28;20406;-76
2023/04/15 02:06:29;;;;;;;0.05;0.05;;;16.50;67.10;;;;;;5021482;28;20067;-76
2023/04/15 02:08:55;;;;;;;0.30;0.10;;;16.60;67.30;;;;;;4997475;28;20402;-76
2023/04/15 02:11:21;;;;;;;0.17;0.10;;;16.50;67.00;;;;;;4987532;28;20049;-76
2023/04/15 02:13:47;;;;;;;0.13;0.10;;;16.50;67.10;;;;;;5007084;28;20052;-75
2023/04/15 02:16:18;;;;;;;0.30;0.10;;;16.50;67.20;;;;;;5041199;28;20710;-75
2023/04/15 02:18:44;;;;;;;0.10;0.10;;;16.50;67.10;;;;;;5020832;28;20036;-75
2023/04/15 02:21:10;;;;;;;0.10;0.10;;;16.50;67.10;;;;;;5041391;28;20064;-75
2023/04/15 02:23:36;;;;;;;0.10;0.10;;;16.50;67.10;;;;;;5019109;28;20033;-75
2023/04/15 02:26:01;;;;;;;0.30;0.10;;;16.50;67.10;;;;;;5040117;28;20055;-75
2023/04/15 02:28:27;;;;;;;0.00;0.00;;;16.50;67.10;;;;;;5041129;28;20061;-75
2023/04/15 02:30:55;;;;;;;0.20;0.10;;;16.50;67.20;;;;;;5020185;28;20075;-75
2023/04/15 02:33:20;;;;;;;0.20;0.20;;;16.50;67.10;;;;;;5019607;28;21114;-75
2023/04/15 02:35:46;;;;;;;0.17;0.17;;;16.50;67.00;;;;;;5041333;28;20522;-75
2023/04/15 02:38:13;;;;;;;0.20;0.10;;;16.50;67.00;;;;;;5040147;28;20051;-75
2023/04/15 02:40:38;;;;;;;0.10;0.10;;;16.50;67.10;;;;;;5041668;28;20210;-75
2023/04/15 02:43:05;;;;;;;0.10;0.10;;;16.50;67.10;;;;;;5005100;28;20407;-75
2023/04/15 02:45:31;;;;;;;0.95;0.17;;;16.50;67.00;;;;;;5008923;28;20084;-75
2023/04/15 02:47:57;;;;;;;0.30;0.30;;;16.50;67.00;;;;;;5009386;28;20049;-75
2023/04/15 02:50:24;;;;;;;0.20;0.20;;;16.50;67.10;;;;;;5043171;28;20465;-75
2023/04/15 02:52:50;;;;;;;0.30;0.20;;;16.50;67.20;;;;;;5042761;28;20040;-75
2023/04/15 02:55:16;;;;;;;0.10;0.10;;;16.50;67.10;;;;;;5025825;28;20311;-75
2023/04/15 02:57:42;;;;;;;0.20;0.20;;;16.50;67.10;;;;;;5044950;28;20056;-75
2023/04/15 03:00:10;;;;;;;0.22;0.13;;;16.50;67.10;;;;;;5016084;28;20464;-75
2023/04/15 03:02:36;;;;;;;0.20;0.20;;;16.50;67.10;;;;;;5024038;28;20052;-75
2023/04/15 03:05:02;;;;;;;0.15;0.15;;;16.50;67.10;;;;;;5023289;28;20164;-75
2023/04/15 03:07:27;;;;;;;0.40;0.30;;;16.50;67.10;;;;;;5024686;28;20460;-75
2023/04/15 03:09:53;;;;;;;0.10;0.10;;;16.50;67.30;;;;;;5024408;28;20040;-75
2023/04/15 03:12:19;;;;;;;0.20;0.20;;;16.40;67.10;;;;;;5021295;28;20603;-75
2023/04/15 03:14:44;;;;;;;0.20;0.20;;;16.40;66.90;;;;;;5022420;28;20486;-75
2023/04/15 03:17:10;;;;;;;0.20;0.20;;;16.40;67.00;;;;;;5021350;28;20041;-75
2023/04/15 03:19:36;;;;;;;0.10;0.10;;;16.40;67.00;;;;;;5024107;28;20053;-75
2023/04/15 03:22:01;;;;;;;0.10;0.10;;;16.40;67.20;;;;;;4989966;28;20049;-75
2023/04/15 03:24:28;;;;;;;0.10;0.10;;;16.40;67.10;;;;;;5021373;28;20040;-76
2023/04/15 03:26:54;;;;;;;0.20;0.10;;;16.40;67.10;;;;;;5023446;28;20048;-75
2023/04/15 03:29:19;;;;;;;0.17;0.17;;;16.40;67.10;;;;;;5020794;28;20086;-75
2023/04/15 03:31:45;;;;;;;0.30;0.20;;;16.40;67.10;;;;;;5022436;28;20099;-75
2023/04/15 03:34:10;;;;;;;0.10;0.10;;;16.40;67.20;;;;;;5022508;28;20045;-75
2023/04/15 03:36:36;;;;;;;0.40;0.10;;;16.40;67.00;;;;;;5004688;28;20791;-75
2023/04/15 03:39:02;;;;;;;0.15;0.10;;;16.40;67.10;;;;;;5020758;28;20095;-75
2023/04/15 03:41:27;;;;;;;0.52;0.20;;;16.40;67.10;;;;;;5020076;28;20169;-75
2023/04/15 03:43:53;;;;;;;0.30;0.20;;;16.40;67.00;;;;;;5002945;28;20045;-75
2023/04/15 03:46:19;;;;;;;0.25;0.10;;;16.40;67.00;;;;;;5022690;28;20594;-76
2023/04/15 03:48:46;;;;;;;0.20;0.10;;;16.40;67.00;;;;;;5021552;28;20909;-75
2023/04/15 03:51:11;;;;;;;0.10;0.10;;;16.40;67.00;;;;;;5005487;28;20994;-75
2023/04/15 03:53:37;;;;;;;0.35;0.10;;;16.40;66.90;;;;;;5001285;28;20072;-75
2023/04/15 03:56:02;;;;;;;0.10;0.10;;;16.40;66.90;;;;;;5031538;28;20049;-75
2023/04/15 03:58:28;;;;;;;0.00;0.00;;;16.40;67.10;;;;;;5025291;28;20761;-75
2023/04/15 04:00:53;;;;;;;0.20;0.10;;;16.40;67.10;;;;;;5012520;28;20460;-75
2023/04/15 04:03:19;;;;;;;0.15;0.10;;;16.40;66.90;;;;;;5003547;28;20131;-75
2023/04/15 04:05:45;;;;;;;0.10;0.10;;;16.40;67.00;;;;;;4991057;28;20110;-75
2023/04/15 04:08:12;;;;;;;0.20;0.20;;;16.40;67.00;;;;;;5006372;28;20428;-75
2023/04/15 04:10:38;;;;;;;0.10;0.10;;;16.40;66.90;;;;;;5011921;28;20716;-75
2023/04/15 04:13:04;;;;;;;0.10;0.10;;;16.40;66.90;;;;;;5030435;28;20062;-75
2023/04/15 04:15:29;;;;;;;0.25;0.20;;;16.40;67.00;;;;;;5032439;28;20052;-75
2023/04/15 04:17:55;;;;;;;0.30;0.20;;;16.40;66.90;;;;;;4997042;28;20049;-75
2023/04/15 04:20:21;;;;;;;0.30;0.20;;;16.40;66.70;;;;;;5012459;28;20049;-75
2023/04/15 04:22:47;;;;;;;0.20;0.10;;;16.40;66.80;;;;;;5020637;28;20049;-75
2023/04/15 04:25:12;;;;;;;0.20;0.10;;;16.40;67.10;;;;;;5030442;28;20049;-75
2023/04/15 04:27:38;;;;;;;0.13;0.13;;;16.40;67.00;;;;;;5030779;28;20502;-75
2023/04/15 04:30:05;;;;;;;0.25;0.15;;;16.30;67.00;;;;;;5029583;28;20060;-75
2023/04/15 04:32:31;;;;;;;0.25;0.20;;;16.40;66.90;;;;;;5002714;28;20695;-75
2023/04/15 04:34:56;;;;;;;1.40;0.20;;;16.40;66.90;;;;;;5008572;28;20045;-76
2023/04/15 04:37:23;;;;;;;0.40;0.20;;;16.40;66.90;;;;;;5026165;28;20137;-75
2023/04/15 04:39:49;;;;;;;0.20;0.20;;;16.40;66.90;;;;;;5033500;28;20048;-75
2023/04/15 04:42:14;;;;;;;0.28;0.20;;;16.40;66.90;;;;;;4991506;28;20782;-75
2023/04/15 04:44:40;;;;;;;0.25;0.20;;;16.30;66.90;;;;;;4992800;28;20061;-75
2023/04/15 04:47:06;;;;;;;0.20;0.20;;;16.40;66.90;;;;;;5020929;28;20055;-75
2023/04/15 04:49:32;;;;;;;0.25;0.25;;;16.40;67.00;;;;;;5013645;28;20040;-75
2023/04/15 04:51:58;;;;;;;0.03;0.03;;;16.30;67.00;;;;;;4991042;28;20037;-75
2023/04/15 04:54:23;;;;;;;0.10;0.10;;;16.40;66.90;;;;;;5004194;28;21020;-75
2023/04/15 04:56:49;;;;;;;0.28;0.20;;;16.40;66.90;;;;;;5015773;28;20040;-75
2023/04/15 04:59:14;;;;;;;0.32;0.20;;;16.30;66.70;;;;;;5034658;28;20514;-75
2023/04/15 05:01:40;;;;;;;0.20;0.20;;;16.30;66.70;;;;;;5010203;28;20783;-75
2023/04/15 05:04:06;;;;;;;0.20;0.20;;;16.30;67.70;;;;;;5010359;28;20716;-75
2023/04/15 05:06:32;;;;;;;0.15;0.10;;;16.30;66.70;;;;;;5011652;28;20040;-75
2023/04/15 05:08:57;;;;;;;0.15;0.15;;;16.30;66.70;;;;;;5021921;28;20334;-76
2023/04/15 05:11:23;;;;;;;0.38;0.32;;;16.30;66.80;;;;;;5031183;28;20092;-75
2023/04/15 05:13:49;;;;;;;0.30;0.20;;;16.30;66.80;;;;;;5011867;28;20068;-75
2023/04/15 05:16:14;;;;;;;0.43;0.30;;;16.30;66.90;;;;;;5016959;28;20682;-75
2023/04/15 05:18:40;;;;;;;0.55;0.20;;;16.30;66.90;;;;;;4998022;28;20064;-75
2023/04/15 05:21:06;;;;;;;0.20;0.15;;;16.30;66.70;;;;;;5009163;28;21003;-75
2023/04/15 05:23:32;;;;;;;0.38;0.25;;;16.30;66.80;;;;;;5026342;28;20045;-75
2023/04/15 05:25:57;;;;;;;0.20;0.20;;;16.30;66.70;;;;;;5012385;28;20528;-75
2023/04/15 05:28:23;;;;;;;0.30;0.20;;;16.30;66.90;;;;;;5013161;28;20048;-75
2023/04/15 05:30:48;;;;;;;0.10;0.10;;;16.30;66.80;;;;;;5029318;28;20041;-75
2023/04/15 05:33:14;;;;;;;0.30;0.30;;;16.30;66.80;;;;;;4985317;28;20037;-75
2023/04/15 05:35:40;;;;;;;0.30;0.20;;;16.30;66.70;;;;;;4995372;28;20120;-75
2023/04/15 05:38:06;;;;;;;0.30;0.30;;;16.30;66.70;;;;;;5011298;28;20788;-75
2023/04/15 05:40:31;;;;;;;0.10;0.10;;;16.30;66.70;;;;;;5011003;28;20183;-75
2023/04/15 05:42:57;;;;;;;0.45;0.35;;;16.30;67.50;;;;;;4991798;28;20045;-75
2023/04/15 05:45:22;;;;;;;0.20;0.20;;;16.30;66.80;;;;;;5020335;28;20037;-75
2023/04/15 05:47:52;;;;;;;0.52;0.10;;;16.30;66.60;;;;;;5007751;28;20044;-75
2023/04/15 05:50:18;;;;;;;0.43;0.30;;;16.30;66.70;;;;;;5025984;28;20059;-75
2023/04/15 05:52:44;;;;;;;0.20;0.20;;;16.30;66.60;;;;;;5004560;28;20044;-75
2023/04/15 05:55:11;;;;;;;0.20;0.20;;;16.30;66.80;;;;;;5019777;28;20057;-75
2023/04/15 05:57:37;;;;;;;0.20;0.20;;;16.30;66.70;;;;;;5001601;28;20132;-75
2023/04/15 06:00:04;;;;;;;0.65;0.10;;;16.30;66.60;;;;;;5019203;28;20521;-75
2023/04/15 06:02:30;;;;;;;0.30;0.20;;;16.30;66.70;;;;;;5003046;28;20037;-75
2023/04/15 06:04:56;;;;;;;0.25;0.10;;;16.30;66.60;;;;;;5014505;28;20139;-75
2023/04/15 06:07:22;;;;;;;0.40;0.22;;;16.30;66.90;;;;;;5007585;28;20539;-77
2023/04/15 06:09:48;;;;;;;0.20;0.15;;;16.30;66.70;;;;;;5029543;28;20106;-78
2023/04/15 06:12:14;;;;;;;0.30;0.28;;;16.40;66.50;;;;;;5010444;28;20109;-78
2023/04/15 06:14:40;;;;;;;0.20;0.20;;;16.40;66.30;;;;;;5018837;28;20068;-79
2023/04/15 06:17:06;;;;;;;0.40;0.30;;;16.40;66.30;;;;;;5022390;28;20132;-78
2023/04/15 06:19:32;;;;;;;0.20;0.20;;;16.40;66.20;;;;;;5024488;28;20052;-78
2023/04/15 06:21:58;;;;;;;0.20;0.20;;;16.40;66.30;;;;;;5025941;28;20470;-80
2023/04/15 06:24:23;;;;;;;0.55;0.25;;;16.40;66.50;;;;;;4656508;28;9999597;-78
2023/04/15 06:26:49;;;;;;;0.38;0.38;;;16.40;66.50;;;;;;5007285;28;20429;-78
2023/04/15 06:29:15;;;;;;;0.25;0.20;;;16.40;66.50;;;;;;5042843;28;20059;-78
2023/04/15 06:31:40;;;;;;;0.30;0.22;;;16.40;66.60;;;;;;5023148;28;20063;-78
2023/04/15 06:34:06;;;;;;;0.17;0.17;;;16.40;66.50;;;;;;5022383;28;20048;-78
2023/04/15 06:36:32;;;;;;;0.22;0.20;;;16.40;66.50;;;;;;5039632;28;20055;-78
2023/04/15 06:38:57;;;;;;;0.90;0.20;;;16.40;66.70;;;;;;5023743;28;20446;-79
2023/04/15 06:41:23;;;;;;;0.50;0.30;;;16.40;66.50;;;;;;4990538;28;20049;-78
2023/04/15 06:43:49;;;;;;;0.35;0.20;;;16.40;66.40;;;;;;5022359;28;20589;-78
2023/04/15 06:46:14;;;;;;;0.28;0.13;;;16.40;66.50;;;;;;5006492;28;20037;-79
2023/04/15 06:48:40;;;;;;;0.38;0.30;;;16.40;66.50;;;;;;5005231;28;20052;-78
2023/04/15 06:51:05;;;;;;;0.30;0.20;;;16.40;66.50;;;;;;5023226;28;20041;-78
2023/04/15 06:53:31;;;;;;;0.70;0.17;;;16.40;66.50;;;;;;5039635;28;20121;-78
2023/04/15 06:55:57;;;;;;;0.68;0.30;;;16.40;66.40;;;;;;5041784;28;20056;-78
2023/04/15 06:58:22;;;;;;;0.30;0.20;;;16.40;66.50;;;;;;5024082;28;20139;-79
2023/04/15 07:00:48;;;;;;;0.22;0.20;;;16.40;66.50;;;;;;5006128;28;20068;-79
2023/04/15 07:03:13;;;;;;;0.35;0.20;;;16.50;66.30;;;;;;5022681;28;20520;-79
2023/04/15 07:05:40;;;;;;;0.30;0.30;;;16.50;66.30;;;;;;5004757;28;20044;-81
2023/04/15 07:08:06;;;;;;;0.30;0.28;;;16.50;66.60;;;;;;5023477;28;21030;-78
2023/04/15 07:10:33;;;;;;;0.25;0.20;;;16.50;66.30;;;;;;5041423;28;20597;-79
2023/04/15 07:12:58;;;;;;;0.55;0.40;;;16.50;67.30;;;;;;5003201;28;20044;-79
2023/04/15 07:15:24;;;;;;;0.35;0.35;;;16.50;66.30;;;;;;5040682;28;20036;-77
2023/04/15 07:17:50;;;;;;;0.32;0.20;;;16.50;66.10;;;;;;4987886;28;21115;-81
2023/04/15 07:20:15;;;;;;;0.30;0.20;;;16.50;66.10;;;;;;5021902;28;20095;-79
2023/04/15 07:22:41;;;;;;;0.30;0.20;;;16.50;66.40;;;;;;5003565;28;20076;-78
2023/04/15 07:25:07;;;;;;;0.57;0.30;;;16.50;66.40;;;;;;5020173;28;20713;-79
2023/04/15 07:27:33;;;;;;;0.32;0.20;;;16.50;66.60;;;;;;5038749;28;20056;-78
2023/04/15 07:29:58;;;;;;;0.32;0.15;;;16.60;66.70;;;;;;4989038;28;20063;-78
2023/04/15 07:32:24;;;;;;;0.47;0.30;;;16.60;66.60;;;;;;5042325;28;20052;-79
2023/04/15 07:34:50;;;;;;;0.32;0.30;;;16.60;66.50;;;;;;5006716;28;20136;-78
2023/04/15 07:37:16;;;;;;;1.02;0.40;;;16.60;66.50;;;;;;5026862;28;20063;-78
2023/04/15 07:39:42;;;;;;;0.20;0.20;;;16.60;66.60;;;;;;5023399;28;20048;-78
2023/04/15 07:42:08;;;;;;;0.20;0.20;;;16.50;66.70;;;;;;5042068;28;20104;-78
2023/04/15 07:44:33;;;;;;;0.60;0.40;;;16.60;66.80;;;;;;5005336;28;20496;-78
2023/04/15 07:46:59;;;;;;;0.40;0.22;;;16.50;66.80;;;;;;5058053;28;20048;-78
2023/04/15 07:49:25;;;;;;;0.20;0.20;;;16.50;66.80;;;;;;4992415;28;20044;-78
2023/04/15 07:51:50;;;;;;;0.30;0.25;;;16.50;67.10;;;;;;5022947;28;20121;-78
2023/04/15 07:54:16;;;;;;;0.30;0.15;;;16.50;66.80;;;;;;5023943;28;20063;-78
2023/04/15 07:56:41;;;;;;;0.20;0.20;;;16.50;66.80;;;;;;5006891;28;20102;-78
2023/04/15 07:59:08;;;;;;;1.67;0.40;;;16.50;66.80;;;;;;5008305;28;20119;-79
2023/04/15 08:01:34;;;;;;;0.40;0.30;;;16.50;67.60;;;;;;5006496;28;20040;-78
2023/04/15 08:04:00;;;;;;;0.40;0.20;;;16.60;66.80;;;;;;5042148;28;20052;-78
2023/04/15 08:06:26;;;;;;;3.15;0.20;;;16.60;66.60;;;;;;5024298;28;20594;-78
2023/04/15 08:08:53;;;;;;;0.38;0.32;;;16.60;66.60;;;;;;5023565;28;20139;-78
2023/04/15 08:11:19;;;;;;;0.30;0.25;;;16.60;66.50;;;;;;5002806;28;1095473;-78
2023/04/15 08:13:45;;;;;;;0.30;0.20;;;16.60;66.50;;;;;;4989769;28;20564;-78
2023/04/15 08:16:24;;;;;;;0.40;0.28;;;16.60;66.60;;;;;;5009299;28;21400;-78
2023/04/15 08:18:50;;;;;;;0.20;0.20;;;16.60;66.50;;;;;;5008204;28;20060;-78
2023/04/15 08:21:17;;;;;;;0.25;0.25;;;16.60;66.50;;;;;;5008729;28;20057;-78
2023/04/15 08:23:43;;;;;;;0.32;0.30;;;16.60;66.40;;;;;;5005514;28;20047;-78
2023/04/15 08:26:08;;;;;;;0.43;0.30;;;16.60;66.40;;;;;;5041194;28;20076;-77
2023/04/15 08:28:34;;;;;;;0.20;0.20;;;16.70;66.30;;;;;;5024072;28;20414;-78
2023/04/15 08:31:00;;;;;;;0.52;0.30;;;16.70;66.30;;;;;;5042686;28;20044;-78
2023/04/15 08:33:27;;;;;;;0.50;0.25;;;16.80;66.30;;;;;;5023460;28;20049;-78
2023/04/15 08:35:53;;;;;;;0.45;0.32;;;16.80;66.20;;;;;;5007190;28;20048;-78
2023/04/15 08:38:18;;;;;;;0.22;0.20;;;16.80;66.20;;;;;;5025094;28;20052;-78
2023/04/15 08:40:45;;;;;;;0.40;0.22;;;16.80;66.20;;;;;;5005706;28;20048;-78
2023/04/15 08:43:14;;;;;;;0.40;0.32;;;16.80;66.30;;;;;;5039393;28;20126;-78
2023/04/15 08:45:40;;;;;;;0.80;0.50;;;16.80;66.40;;;;;;5005577;28;21461;-78
2023/04/15 08:48:06;;;;;;;0.28;0.20;;;16.80;66.40;;;;;;5008805;28;20506;-78
2023/04/15 08:50:32;;;;;;;1.05;0.30;;;16.80;66.20;;;;;;5006929;28;20052;-78
2023/04/15 08:53:00;;;;;;;0.30;0.22;;;16.80;66.10;;;;;;4989219;28;20657;-78
2023/04/15 08:55:32;;;;;;;0.57;0.20;;;16.90;66.20;;;;;;5007808;28;20052;-78
2023/04/15 08:57:58;;;;;;;0.30;0.30;;;16.90;66.10;;;;;;5012481;28;20063;-78
2023/04/15 09:00:24;;;;;;;0.20;0.20;;;16.90;66.10;;;;;;4990842;28;20048;-78
2023/04/15 09:02:49;;;;;;;0.70;0.20;;;16.90;66.00;;;;;;4986292;28;20041;-78
2023/04/15 09:05:16;;;;;;;0.20;0.20;;;16.90;65.90;;;;;;4980607;28;20569;-78
2023/04/15 09:07:41;;;;;;;0.35;0.20;;;16.90;65.90;;;;;;5003061;28;20557;-78
2023/04/15 09:10:09;;;;;;;0.57;0.20;;;16.90;65.70;;;;;;5016704;28;20111;-78
2023/04/15 09:12:35;;;;;;;0.30;0.30;;;17.00;65.40;;;;;;4989491;28;20147;-78
2023/04/15 09:15:01;;;;;;;0.30;0.30;;;17.00;65.40;;;;;;5010753;28;20049;-78
2023/04/15 09:17:27;;;;;;;0.38;0.20;;;17.00;65.30;;;;;;5022252;28;20049;-77
2023/04/15 09:20:09;;;;;;;0.20;0.20;;;17.00;65.20;;;;;;4989725;28;20060;-78
2023/04/15 09:22:36;;;;;;;0.40;0.30;;;17.00;65.10;;;;;;5015165;28;20087;-78
2023/04/15 09:25:01;;;;;;;0.13;0.10;;;17.00;65.00;;;;;;5012653;28;20063;-78
2023/04/15 09:27:27;;;;;;;0.20;0.20;;;17.10;65.00;;;;;;5015803;28;20307;-78
2023/04/15 09:29:53;;;;;;;0.40;0.20;;;17.10;65.10;;;;;;5003909;28;20049;-78
2023/04/15 09:32:20;;;;;;;0.20;0.20;;;17.10;64.80;;;;;;5029790;28;20128;-78
2023/04/15 09:34:45;;;;;;;0.35;0.35;;;17.10;65.50;;;;;;5004619;28;20541;-78
2023/04/15 09:37:12;;;;;;;0.20;0.20;;;17.20;65.60;;;;;;4992567;28;20069;-78
2023/04/15 09:39:48;;;;;;;0.28;0.20;;;17.20;64.70;;;;;;5005738;28;20096;-78
2023/04/15 09:42:15;;;;;;;0.30;0.20;;;17.20;64.60;;;;;;5043187;28;20053;-78
2023/04/15 09:44:41;;;;;;;0.43;0.30;;;17.20;64.50;;;;;;5026435;28;20532;-78
2023/04/15 09:47:06;;;;;;;0.70;0.20;;;17.20;64.50;;;;;;5020951;28;20040;-78
2023/04/15 09:49:33;;;;;;;0.30;0.20;;;17.20;64.40;;;;;;5032558;28;20041;-78
2023/04/15 09:52:02;;;;;;;0.15;0.10;;;17.30;64.50;;;;;;5024252;28;20041;-78
2023/04/15 09:54:37;;;;;;;0.10;0.10;;;17.30;64.40;;;;;;5038810;28;20581;-78
2023/04/15 09:57:07;;;;;;;0.40;0.25;;;17.30;64.40;;;;;;5013659;28;20425;-78
2023/04/15 09:59:33;;;;;;;0.20;0.20;;;17.30;64.30;;;;;;5057232;28;20048;-78
2023/04/15 10:01:58;;;;;;;0.73;0.40;;;17.30;64.20;;;;;;5059856;28;20095;-78
2023/04/15 10:04:24;;;;;;;0.20;0.10;;;17.40;64.30;;;;;;4999208;28;20132;-78
2023/04/15 10:06:49;;;;;;;0.30;0.30;;;17.40;64.20;;;;;;5038767;28;20041;-78
2023/04/15 10:09:16;;;;;;;1.20;0.20;;;17.40;64.10;;;;;;5032747;28;20402;-78
2023/04/15 10:11:42;;;;;;;0.38;0.35;;;17.40;64.10;;;;;;5030665;28;20056;-78
2023/04/15 10:14:07;;;;;;;0.20;0.20;;;17.40;64.10;;;;;;5030230;28;20422;-79
2023/04/15 10:16:33;;;;;;;0.30;0.20;;;17.40;63.90;;;;;;5048439;28;20044;-79
2023/04/15 10:19:00;;;;;;;0.10;0.10;;;17.50;65.20;;;;;;5041992;28;20048;-78
2023/04/15 10:21:26;;;;;;;0.25;0.20;;;17.50;64.80;;;;;;5046612;28;20044;-77
2023/04/15 10:23:52;;;;;;;0.28;0.28;;;17.50;65.30;;;;;;5012969;28;20059;-78
2023/04/15 10:26:17;;;;;;;0.30;0.30;;;17.50;65.40;;;;;;5030913;28;20040;-78
2023/04/15 10:28:43;;;;;;;0.10;0.08;;;17.50;65.50;;;;;;5045337;28;20040;-78
2023/04/15 10:31:12;;;;;;;0.10;0.10;;;17.50;65.10;;;;;;5027891;28;20072;-78
2023/04/15 10:33:38;;;;;;;0.17;0.10;;;17.50;65.00;;;;;;5045141;28;20040;-77
2023/04/15 10:36:03;;;;;;;0.10;0.10;;;17.50;64.80;;;;;;4693846;28;10000448;-78
2023/04/15 10:38:40;;;;;;;0.63;0.45;;;17.60;65.00;;;;;;5041773;28;20267;-78
2023/04/15 10:41:21;;;;;;;0.40;0.32;;;17.60;65.30;;;;;;5033058;28;20680;-76
2023/04/15 10:43:59;;;;;;;0.38;0.28;;;17.60;65.20;;;;;;5027291;28;20714;-77
2023/04/15 10:46:37;;;;;;;0.60;0.30;;;17.60;65.00;;;;;;5032085;28;20032;-78
2023/04/15 10:49:16;;;;;;;0.30;0.30;;;17.60;65.40;;;;;;5052850;28;20044;-78
2023/04/15 10:51:43;;;;;;;0.40;0.10;;;17.60;65.00;;;;;;5024095;28;20067;-79
2023/04/15 10:54:29;;;;;;;0.25;0.10;;;17.60;65.10;;;;;;5043627;28;20041;-77
2023/04/15 10:57:01;;;;;;;0.52;0.25;;;17.60;65.00;;;;;;5037332;28;20052;-77
2023/04/15 11:00:10;;;;;;;0.15;0.08;;;17.70;64.90;;;;;;5040346;28;20053;-77
2023/04/15 11:02:51;;;;;;;0.50;0.15;;;17.70;65.10;;;;;;5049605;28;20084;-77
2023/04/15 11:05:17;;;;;;;0.20;0.20;;;17.70;65.10;;;;;;5055951;28;20056;-77
2023/04/15 11:07:45;;;;;;;0.38;0.20;;;17.70;65.30;;;;;;5044437;28;20028;-77
2023/04/15 11:10:20;;;;;;;0.52;0.20;;;17.70;65.10;;;;;;5045620;28;20050;-77
2023/04/15 11:12:52;;;;;;;1.75;0.20;;;17.70;65.20;;;;;;5043193;28;20150;-77
2023/04/15 11:15:46;;;;;;;0.50;0.22;;;17.70;65.10;;;;;;5031219;28;20494;-77
2023/04/15 11:18:23;;;;;;;2.33;0.30;;;17.70;65.40;;;;;;5028090;28;20029;-78
2023/04/15 11:20:53;;;;;;;0.52;0.52;;;17.70;65.60;;;;;;5026439;28;20132;-78
2023/04/15 11:23:26;;;;;;;0.63;0.40;;;17.70;65.70;;;;;;5037301;28;20041;-78
2023/04/15 11:25:54;;;;;;;0.40;0.40;;;17.70;65.60;;;;;;5033255;28;20505;-78
2023/04/15 11:28:19;;;;;;;1.75;0.30;;;17.70;65.60;;;;;;5010251;28;20041;-78
2023/04/15 11:30:45;;;;;;;1.55;0.63;;;17.70;65.60;;;;;;5016976;28;20047;-78
2023/04/15 11:33:11;;;;;;;0.70;0.25;;;17.70;65.50;;;;;;5044754;28;20204;-78
2023/04/15 11:35:36;;;;;;;0.10;0.10;;;17.70;65.50;;;;;;5032597;28;20167;-78
2023/04/15 11:38:07;;;;;;;0.35;0.20;;;17.70;65.60;;;;;;5062637;28;20124;-78
2023/04/15 11:40:34;;;;;;;0.20;0.20;;;17.70;65.60;;;;;;5044353;28;20041;-78
2023/04/15 11:43:10;;;;;;;0.68;0.10;;;17.70;65.70;;;;;;5010271;28;20052;-77
2023/04/15 11:45:36;;;;;;;0.30;0.20;;;17.70;65.60;;;;;;5030076;28;20446;-77
2023/04/15 11:48:08;;;;;;;0.38;0.38;;;17.70;65.60;;;;;;5038476;28;20052;-77
2023/04/15 11:50:35;;;;;;;0.82;0.32;;;17.70;65.60;;;;;;5042796;28;20045;-76
2023/04/15 11:53:04;;;;;;;0.20;0.20;;;17.70;65.60;;;;;;5051043;28;20115;-78
2023/04/15 11:55:30;;;;;;;2.45;0.20;;;17.80;65.50;;;;;;5007892;28;20120;-77
2023/04/15 11:58:17;;;;;;;0.35;0.35;;;17.80;65.60;;;;;;5025145;28;20136;-77
2023/04/15 12:01:03;;;;;;;0.10;0.10;;;17.80;65.70;;;;;;5043343;28;20119;-76
2023/04/15 12:03:30;;;;;;;0.20;0.20;;;17.80;65.70;;;;;;5040911;28;20033;-76
2023/04/15 12:06:02;;;;;;;1.55;0.20;;;17.70;65.60;;;;;;5045801;28;20040;-77
2023/04/15 12:08:59;;;;;;;0.40;0.40;;;17.70;65.60;;;;;;5047070;28;20036;-76
2023/04/15 12:11:40;;;;;;;0.22;0.20;;;17.70;65.60;;;;;;5043159;28;20053;-76
2023/04/15 12:14:27;;;;;;;0.20;0.20;;;17.70;65.70;;;;;;5043626;28;20045;-76
2023/04/15 12:17:03;;;;;;;0.10;0.10;;;17.70;65.60;;;;;;5042718;28;20048;-76
2023/04/15 12:19:36;;;;;;;0.30;0.30;;;17.70;65.60;;;;;;5051468;28;20128;-77
2023/04/15 12:22:04;;;;;;;0.03;0.03;;;17.70;65.60;;;;;;5045712;28;20115;-77
2023/04/15 12:24:33;;;;;;;0.05;0.05;;;17.70;65.60;;;;;;5029865;28;20041;-77
2023/04/15 12:27:06;;;;;;;0.20;0.10;;;17.70;65.60;;;;;;5051035;28;20116;-77
2023/04/15 12:29:33;;;;;;;0.65;0.20;;;17.70;65.60;;;;;;5065870;28;20048;-77
2023/04/15 12:32:06;;;;;;;0.82;0.20;;;17.70;65.60;;;;;;5061751;28;20060;-78
2023/04/15 12:34:36;;;;;;;0.90;0.20;;;17.70;65.60;;;;;;5063682;28;20097;-76
2023/04/15 12:37:04;;;;;;;0.20;0.20;;;17.70;65.90;;;;;;5065226;28;20119;-77
2023/04/15 12:39:33;;;;;;;1.67;0.30;;;17.70;65.30;;;;;;5047908;28;20446;-75
2023/04/15 12:42:00;;;;;;;0.57;0.30;;;17.70;65.00;;;;;;5043902;28;20034;-76
2023/04/15 12:44:26;;;;;;;0.57;0.40;;;17.70;64.20;;;;;;5063716;28;20036;-75
2023/04/15 12:46:52;;;;;;;0.38;0.20;;;17.70;63.60;;;;;;5029578;28;20086;-76